Time;durP1;ratioP1;P1;durP2;ratioP2;P2;SDS_P1;SDS_P2;PMS_P1;PMS_P2;Temp;Humidity;BMP_temperature;BMP_pressure;BME280_temperature;BME280_humidity;BME280_pressure;Samples;Min_cycle;Max_cycle;Signal;HPM_P1;HPM_P2
2022/01/20 00:02:06;;;;;;;11.70;9.50;;;2.40;99.90;;;;;;9992883;29;20255;-86
2022/01/20 00:07:43;;;;;;;15.60;11.13;;;2.40;99.90;;;;;;10009632;29;20241;-78
2022/01/20 00:30:33;;;;;;;8.10;6.50;;;2.40;99.90;;;;;;10006320;29;20207;-83
2022/01/20 00:41:18;;;;;;;8.30;5.87;;;2.50;99.90;;;;;;9992692;29;20224;-79
2022/01/20 00:46:39;;;;;;;8.40;5.20;;;2.40;99.90;;;;;;9992005;29;20255;-82
2022/01/20 00:52:02;;;;;;;10.03;4.67;;;2.50;99.90;;;;;;9989736;29;20267;-78
2022/01/20 00:57:24;;;;;;;13.60;5.33;;;2.50;99.90;;;;;;9997867;29;20195;-81
2022/01/20 01:02:46;;;;;;;12.73;4.23;;;2.60;99.90;;;;;;10013556;29;20271;-78
2022/01/20 01:08:09;;;;;;;7.20;4.00;;;2.60;99.90;;;;;;10026511;29;20227;-79
2022/01/20 01:13:31;;;;;;;9.67;3.87;;;2.70;99.90;;;;;;10033264;29;20207;-82
2022/01/20 01:24:34;;;;;;;9.20;4.03;;;2.60;99.90;;;;;;10012828;29;20428;-83
2022/01/20 01:35:22;;;;;;;9.47;2.97;;;2.20;99.90;;;;;;10026630;29;20898;-83
2022/01/20 01:40:45;;;;;;;13.70;2.90;;;2.10;99.90;;;;;;10028565;29;20418;-83
2022/01/20 01:46:07;;;;;;;9.33;2.57;;;2.00;99.90;;;;;;10015470;29;20290;-78
2022/01/20 01:51:31;;;;;;;15.63;2.87;;;2.10;99.90;;;;;;10012719;29;20285;-86
2022/01/20 01:56:53;;;;;;;13.33;2.27;;;2.10;99.90;;;;;;9977096;29;20260;-79
2022/01/20 02:02:23;;;;;;;14.43;2.67;;;2.20;99.90;;;;;;10005575;29;20260;-86
2022/01/20 02:19:09;;;;;;;8.97;2.00;;;2.10;99.90;;;;;;10032382;29;20205;-82
2022/01/20 02:24:33;;;;;;;14.57;2.13;;;2.10;99.90;;;;;;10006158;29;20586;-82
2022/01/20 02:29:55;;;;;;;12.33;2.50;;;2.00;99.90;;;;;;10019100;29;20561;-86
2022/01/20 02:35:17;;;;;;;9.33;2.00;;;2.00;99.90;;;;;;10017906;29;20203;-78
2022/01/20 02:46:08;;;;;;;11.97;1.87;;;2.10;99.90;;;;;;10029328;24;20249;-80
2022/01/20 02:51:31;;;;;;;10.67;2.20;;;2.10;99.90;;;;;;10031298;29;20397;-81
2022/01/20 02:56:56;;;;;;;7.50;1.60;;;2.10;99.90;;;;;;9982558;29;20379;-79
2022/01/20 03:02:18;;;;;;;8.87;1.93;;;2.10;99.90;;;;;;10017926;29;20508;-85
2022/01/20 03:07:41;;;;;;;11.70;2.03;;;2.10;99.90;;;;;;10004265;29;20250;-86
2022/01/20 03:13:03;;;;;;;8.80;1.93;;;2.10;99.90;;;;;;10140485;24;20239;-86
2022/01/20 03:18:25;;;;;;;8.97;1.90;;;1.90;99.90;;;;;;10045813;29;20198;-79
2022/01/20 03:23:47;;;;;;;10.23;2.03;;;1.80;99.90;;;;;;10009726;29;20219;-79
2022/01/20 03:29:10;;;;;;;11.87;2.20;;;1.80;99.90;;;;;;9994752;29;20277;-80
2022/01/20 03:34:32;;;;;;;16.53;2.37;;;1.70;99.90;;;;;;9979542;29;20253;-80
2022/01/20 03:39:59;;;;;;;12.93;3.13;;;1.50;99.90;;;;;;9994233;29;20280;-84
2022/01/20 03:45:27;;;;;;;7.50;2.13;;;1.40;99.90;;;;;;9978802;29;20239;-79
2022/01/20 03:51:02;;;;;;;9.57;2.70;;;1.50;99.90;;;;;;10195269;24;20593;-82
2022/01/20 03:56:26;;;;;;;13.83;3.00;;;1.60;99.90;;;;;;10082075;29;20259;-78
2022/01/20 04:02:14;;;;;;;9.23;2.00;;;1.70;99.90;;;;;;9960357;29;20245;-82
2022/01/20 04:14:08;;;;;;;7.63;1.80;;;1.60;99.90;;;;;;10017845;29;20216;-83
2022/01/20 04:19:32;;;;;;;9.53;2.20;;;1.60;99.90;;;;;;9977796;29;20260;-78
2022/01/20 04:24:54;;;;;;;15.37;1.93;;;1.60;99.90;;;;;;9992336;29;20283;-81
2022/01/20 04:30:16;;;;;;;11.40;3.23;;;0.80;99.90;;;;;;9992498;29;20400;-86
2022/01/20 04:35:39;;;;;;;8.50;1.90;;;0.80;99.90;;;;;;9989340;29;20229;-84
2022/01/20 04:41:01;;;;;;;14.27;1.60;;;0.60;99.90;;;;;;9988876;29;20530;-78
2022/01/20 04:46:33;;;;;;;8.77;2.10;;;0.60;99.90;;;;;;9991622;29;20237;-79
2022/01/20 04:57:36;;;;;;;11.97;2.33;;;0.60;99.90;;;;;;10011468;29;20322;-83
2022/01/20 05:02:58;;;;;;;6.83;1.83;;;0.50;99.90;;;;;;9984435;29;20212;-77
2022/01/20 05:08:24;;;;;;;10.50;1.73;;;0.40;99.90;;;;;;9989155;29;20234;-78
2022/01/20 05:13:50;;;;;;;15.10;2.60;;;0.30;99.90;;;;;;9970867;29;20578;-78
2022/01/20 05:19:12;;;;;;;8.03;1.50;;;0.40;99.90;;;;;;9968144;29;20212;-83
2022/01/20 05:24:34;;;;;;;8.30;2.13;;;0.30;99.90;;;;;;9986593;29;20247;-83
2022/01/20 05:30:04;;;;;;;11.07;1.93;;;0.40;99.90;;;;;;9991026;29;20203;-83
2022/01/20 05:35:28;;;;;;;5.80;1.83;;;0.50;99.90;;;;;;9990380;29;20211;-78
2022/01/20 05:40:51;;;;;;;5.97;2.07;;;0.50;99.90;;;;;;9990248;29;20225;-77
2022/01/20 05:46:40;;;;;;;9.57;2.33;;;0.50;99.90;;;;;;10007770;29;20289;-85
2022/01/20 05:52:15;;;;;;;7.17;1.93;;;0.50;99.90;;;;;;9994469;29;20210;-86
2022/01/20 05:57:43;;;;;;;5.00;1.83;;;0.40;99.90;;;;;;10006027;29;20200;-85
2022/01/20 06:08:48;;;;;;;7.57;1.20;;;0.10;99.90;;;;;;10010574;29;20427;-80
2022/01/20 06:14:14;;;;;;;5.77;1.10;;;0.10;99.90;;;;;;10009837;29;20208;-79
2022/01/20 06:19:36;;;;;;;13.77;1.50;;;0.10;99.90;;;;;;10006940;29;20216;-77
2022/01/20 06:24:58;;;;;;;11.23;1.87;;;0.20;99.90;;;;;;9988238;29;20289;-79
2022/01/20 06:30:21;;;;;;;4.87;1.10;;;0.10;99.90;;;;;;9974294;29;20206;-77
2022/01/20 06:35:43;;;;;;;6.47;1.70;;;0.10;99.90;;;;;;9959179;29;20211;-78
2022/01/20 06:41:05;;;;;;;4.23;1.30;;;0.20;99.90;;;;;;9973595;29;20204;-80
2022/01/20 06:46:29;;;;;;;10.10;1.50;;;0.30;99.90;;;;;;9958001;29;20303;-77
2022/01/20 06:52:00;;;;;;;6.07;1.17;;;0.30;99.90;;;;;;9944642;29;20264;-81
2022/01/20 06:57:22;;;;;;;7.03;1.40;;;0.10;99.90;;;;;;9989979;29;20213;-78
2022/01/20 07:02:45;;;;;;;6.73;1.70;;;0.00;99.90;;;;;;9985262;29;20492;-76
2022/01/20 07:08:09;;;;;;;10.03;1.80;;;-0.20;99.90;;;;;;10011832;29;20442;-76
2022/01/20 07:13:35;;;;;;;10.50;1.90;;;-0.20;99.90;;;;;;9995002;29;20416;-76
2022/01/20 07:18:57;;;;;;;7.37;3.37;;;0.00;99.90;;;;;;10007044;29;20238;-77
2022/01/20 07:24:23;;;;;;;5.70;2.03;;;0.00;99.90;;;;;;9986171;29;20291;-76
2022/01/20 07:29:46;;;;;;;32.47;14.40;;;-0.20;99.90;;;;;;9969436;29;20213;-79
2022/01/20 07:35:08;;;;;;;6.80;3.03;;;-0.30;99.90;;;;;;9969537;29;20197;-80
2022/01/20 07:40:31;;;;;;;7.23;2.80;;;-0.30;99.90;;;;;;9968958;29;20287;-84
2022/01/20 07:45:54;;;;;;;23.23;7.83;;;-0.30;99.90;;;;;;9968976;29;20440;-81
2022/01/20 07:51:17;;;;;;;22.73;6.00;;;-0.20;99.90;;;;;;9968596;29;20562;-84
2022/01/20 07:56:40;;;;;;;20.07;8.80;;;-0.10;99.90;;;;;;9952896;29;20205;-81
2022/01/20 08:02:03;;;;;;;12.80;4.63;;;-0.10;99.90;;;;;;9974906;29;20259;-82
2022/01/20 08:07:27;;;;;;;10.40;3.67;;;0.00;99.90;;;;;;9972522;29;20245;-85
2022/01/20 08:12:50;;;;;;;16.13;8.63;;;-0.10;99.90;;;;;;9992572;29;20231;-78
2022/01/20 08:18:18;;;;;;;14.10;6.27;;;-0.20;99.90;;;;;;9992615;29;20204;-78
2022/01/20 08:23:42;;;;;;;21.03;6.70;;;-0.10;99.90;;;;;;9967323;29;20250;-78
2022/01/20 08:29:04;;;;;;;13.27;3.53;;;0.20;99.90;;;;;;9950308;29;20238;-84
2022/01/20 08:34:27;;;;;;;20.10;8.10;;;0.60;99.90;;;;;;9975480;29;20205;-88
2022/01/20 08:40:13;;;;;;;22.50;8.07;;;1.50;99.90;;;;;;9968085;29;20200;-77
2022/01/20 08:45:38;;;;;;;8.27;4.27;;;3.00;99.90;;;;;;9975850;29;20233;-81
2022/01/20 08:51:02;;;;;;;3.37;1.60;;;3.90;98.20;;;;;;9950593;29;20520;-81
2022/01/20 08:56:30;;;;;;;5.90;2.70;;;4.40;98.00;;;;;;9947688;29;20207;-79
2022/01/20 09:01:52;;;;;;;6.57;2.90;;;4.30;97.40;;;;;;9966222;29;20208;-79
2022/01/20 09:07:15;;;;;;;5.43;2.23;;;2.10;99.90;;;;;;9976911;29;20272;-79
2022/01/20 09:18:05;;;;;;;7.63;2.70;;;0.20;99.90;;;;;;9997422;29;20553;-79
2022/01/20 09:23:29;;;;;;;5.30;2.10;;;0.00;99.90;;;;;;10002845;29;20237;-82
2022/01/20 09:28:51;;;;;;;4.17;2.23;;;-0.20;99.90;;;;;;10036760;29;20244;-79
2022/01/20 09:34:18;;;;;;;4.50;1.50;;;-0.20;99.90;;;;;;10024323;29;20354;-79
2022/01/20 09:39:41;;;;;;;6.07;2.00;;;-0.30;99.90;;;;;;10023410;29;20524;-79
2022/01/20 09:45:23;;;;;;;3.80;1.80;;;-0.20;99.90;;;;;;10012787;23;20249;-77
2022/01/20 09:50:52;;;;;;;4.33;1.70;;;-0.10;99.90;;;;;;9987094;29;20521;-78
2022/01/20 09:56:34;;;;;;;4.60;1.80;;;-0.20;99.90;;;;;;10000264;29;20270;-78
2022/01/20 10:01:58;;;;;;;6.57;1.73;;;-0.10;99.90;;;;;;9947997;29;20211;-78
2022/01/20 10:07:34;;;;;;;3.33;1.50;;;0.00;99.90;;;;;;9971225;29;20244;-79
2022/01/20 10:13:09;;;;;;;5.60;2.30;;;0.40;99.90;;;;;;9985674;29;20238;-78
2022/01/20 10:18:57;;;;;;;8.17;2.37;;;0.70;99.90;;;;;;10000481;29;20258;-78
2022/01/20 10:24:28;;;;;;;6.63;2.50;;;0.70;99.90;;;;;;9981813;29;20586;-77
2022/01/20 10:30:00;;;;;;;5.37;2.77;;;0.80;99.90;;;;;;9973839;29;20531;-80
2022/01/20 10:35:33;;;;;;;5.40;1.80;;;0.80;99.90;;;;;;9980024;29;20374;-78
2022/01/20 10:40:59;;;;;;;8.87;1.87;;;0.70;99.90;;;;;;10026493;29;20291;-76
2022/01/20 10:46:26;;;;;;;12.23;3.87;;;0.60;99.90;;;;;;10029496;29;20261;-84
2022/01/20 10:52:17;;;;;;;6.43;2.57;;;0.60;99.90;;;;;;10016238;29;20212;-80
2022/01/20 10:57:40;;;;;;;7.27;2.07;;;0.90;99.90;;;;;;9995639;29;20199;-79
2022/01/20 11:03:03;;;;;;;6.53;2.30;;;1.30;99.90;;;;;;10033081;29;20298;-77
2022/01/20 11:08:27;;;;;;;8.03;2.80;;;1.70;99.90;;;;;;10003499;29;20243;-77
2022/01/20 11:13:49;;;;;;;8.60;2.20;;;1.30;99.90;;;;;;10002427;29;20216;-77
2022/01/20 11:19:20;;;;;;;7.00;2.83;;;0.10;99.90;;;;;;9990013;29;20280;-77
2022/01/20 11:25:00;;;;;;;7.13;2.30;;;-0.40;99.90;;;;;;9978481;29;20245;-81
2022/01/20 11:30:53;;;;;;;10.20;2.83;;;-0.50;99.90;;;;;;10012876;29;20509;-84
2022/01/20 11:36:27;;;;;;;8.23;3.07;;;-0.40;99.90;;;;;;9977356;29;20241;-83
2022/01/20 11:42:03;;;;;;;11.53;4.57;;;-0.40;99.90;;;;;;10006448;29;20242;-78
2022/01/20 11:47:32;;;;;;;20.00;5.00;;;-0.60;99.90;;;;;;10011846;29;20244;-83
2022/01/20 11:52:55;;;;;;;13.27;5.30;;;-0.80;99.90;;;;;;10010849;29;20372;-76
2022/01/20 11:58:26;;;;;;;11.30;4.93;;;0.20;99.90;;;;;;10052400;29;20288;-80
2022/01/20 12:03:52;;;;;;;5.80;2.40;;;0.90;99.90;;;;;;10047865;29;20286;-82
2022/01/20 12:09:36;;;;;;;6.77;2.63;;;0.60;99.90;;;;;;10033854;29;20263;-81
2022/01/20 12:15:21;;;;;;;13.60;4.33;;;0.00;99.90;;;;;;10012898;29;20221;-82
2022/01/20 12:20:47;;;;;;;18.63;7.57;;;-0.30;99.90;;;;;;9996618;29;20215;-77
2022/01/20 12:26:10;;;;;;;40.47;14.43;;;-0.40;99.90;;;;;;10022331;29;20231;-82
2022/01/20 12:31:43;;;;;;;17.43;8.43;;;-0.60;99.90;;;;;;10043269;29;20223;-79
2022/01/20 12:37:06;;;;;;;14.63;7.40;;;-0.60;99.90;;;;;;10044889;29;20795;-77
2022/01/20 12:42:40;;;;;;;54.30;21.27;;;-0.60;99.90;;;;;;10034116;29;20271;-76
2022/01/20 12:48:14;;;;;;;281.20;86.77;;;-0.50;99.90;;;;;;10060807;29;20245;-83
2022/01/20 12:53:41;;;;;;;28.83;13.57;;;-0.10;99.90;;;;;;10023486;29;20233;-78
2022/01/20 12:59:05;;;;;;;12.77;5.50;;;-0.20;99.90;;;;;;10029916;29;20245;-79
2022/01/20 13:04:37;;;;;;;8.83;4.07;;;-0.10;99.90;;;;;;10030915;29;20215;-82
2022/01/20 13:10:06;;;;;;;15.67;5.13;;;0.00;99.90;;;;;;10009861;29;20455;-77
2022/01/20 13:15:31;;;;;;;12.43;4.70;;;0.20;99.90;;;;;;9995671;29;20212;-78
2022/01/20 13:20:59;;;;;;;10.27;3.23;;;0.20;99.90;;;;;;10008761;29;20209;-79
2022/01/20 13:26:23;;;;;;;9.77;4.10;;;0.20;99.90;;;;;;10011196;29;20250;-85
2022/01/20 13:31:46;;;;;;;15.77;3.87;;;0.20;99.90;;;;;;10002966;29;20212;-80
2022/01/20 13:37:14;;;;;;;11.07;2.40;;;0.10;99.90;;;;;;10036449;29;20269;-83
2022/01/20 13:44:59;;;;;;;9.57;2.80;;;-0.30;99.90;;;;;;10014275;29;20475;-81
2022/01/20 13:48:27;;;;;;;15.67;5.17;;;-0.60;99.90;;;;;;10037792;29;20490;-86
2022/01/20 13:53:55;;;;;;;7.67;3.17;;;-0.70;99.90;;;;;;10008189;29;20199;-79
2022/01/20 13:59:17;;;;;;;6.87;3.37;;;-0.70;99.90;;;;;;10042707;29;20213;-77
2022/01/20 14:04:52;;;;;;;12.03;3.47;;;-0.70;99.90;;;;;;10014920;29;20284;-77
2022/01/20 14:10:15;;;;;;;12.37;3.63;;;-0.50;99.90;;;;;;10025919;29;20299;-78
2022/01/20 14:15:38;;;;;;;10.77;4.10;;;-0.50;99.90;;;;;;10002565;29;20283;-78
2022/01/20 14:21:03;;;;;;;12.87;4.60;;;-0.50;99.90;;;;;;10025910;29;20213;-76
2022/01/20 14:26:29;;;;;;;11.40;4.93;;;-0.60;99.90;;;;;;10034570;29;20327;-78
2022/01/20 14:31:52;;;;;;;18.80;6.13;;;-0.60;99.90;;;;;;10029937;29;20215;-78
2022/01/20 14:37:14;;;;;;;19.67;7.60;;;-0.70;99.90;;;;;;10025967;29;20538;-78
2022/01/20 14:42:37;;;;;;;16.73;6.07;;;-0.70;99.90;;;;;;10013369;29;20248;-78
2022/01/20 14:47:59;;;;;;;21.33;5.47;;;-0.70;99.90;;;;;;10012740;29;20313;-78
2022/01/20 14:53:21;;;;;;;17.40;7.50;;;-0.50;99.90;;;;;;10013546;29;20199;-78
2022/01/20 14:58:43;;;;;;;14.20;4.77;;;-0.40;99.90;;;;;;10058224;29;20235;-78
2022/01/20 15:04:06;;;;;;;16.20;7.27;;;-0.30;99.90;;;;;;10047020;29;20441;-78
2022/01/20 15:09:29;;;;;;;12.10;4.53;;;-0.40;99.90;;;;;;10017623;29;20251;-78
2022/01/20 15:14:51;;;;;;;14.57;3.57;;;-0.30;99.90;;;;;;10040858;29;20496;-78
2022/01/20 15:20:15;;;;;;;15.10;5.00;;;-0.30;99.90;;;;;;10040327;29;20227;-79
2022/01/20 15:25:37;;;;;;;19.87;5.37;;;-0.20;99.90;;;;;;10018227;29;20258;-78
2022/01/20 15:31:01;;;;;;;13.77;4.70;;;-0.20;99.90;;;;;;10012841;29;20234;-81
2022/01/20 15:36:24;;;;;;;12.27;4.50;;;-0.10;99.90;;;;;;10027165;29;20201;-78
2022/01/20 15:41:47;;;;;;;14.10;4.60;;;-0.10;99.90;;;;;;10040242;29;20272;-77
2022/01/20 15:47:09;;;;;;;12.80;4.20;;;-0.10;99.90;;;;;;10023072;29;20240;-77
2022/01/20 15:52:31;;;;;;;17.47;4.73;;;0.00;99.90;;;;;;10045853;29;20205;-79
2022/01/20 15:57:53;;;;;;;12.03;5.20;;;0.10;99.90;;;;;;10047589;29;20663;-79
2022/01/20 16:03:15;;;;;;;10.33;4.70;;;0.10;99.90;;;;;;10013562;29;20466;-78
2022/01/20 16:08:38;;;;;;;9.20;3.47;;;0.10;99.90;;;;;;10012842;29;20255;-85
2022/01/20 16:14:00;;;;;;;12.60;4.07;;;0.10;99.90;;;;;;10030699;29;20269;-77
2022/01/20 16:19:22;;;;;;;9.10;4.00;;;0.10;99.90;;;;;;10041717;29;20205;-78
2022/01/20 16:24:44;;;;;;;10.07;3.55;;;0.10;99.90;;;;;;10042025;29;20498;-77
2022/01/20 16:30:07;;;;;;;9.80;3.80;;;0.10;99.90;;;;;;10012988;29;20201;-77
2022/01/20 16:35:31;;;;;;;9.13;4.20;;;0.10;99.90;;;;;;10039259;29;20504;-77
2022/01/20 16:40:53;;;;;;;10.60;4.40;;;0.20;99.90;;;;;;10026747;29;20201;-79
2022/01/20 16:46:15;;;;;;;9.33;4.27;;;0.20;99.90;;;;;;9990565;29;20263;-77
2022/01/20 16:51:37;;;;;;;11.00;5.43;;;0.20;99.90;;;;;;10005223;29;20278;-78
2022/01/20 16:56:59;;;;;;;10.97;5.60;;;0.20;99.90;;;;;;9993231;29;20204;-77
2022/01/20 17:02:40;;;;;;;10.93;3.73;;;0.20;99.90;;;;;;10035083;29;22812;-77
2022/01/20 17:08:03;;;;;;;20.30;6.00;;;0.30;99.90;;;;;;10004097;29;20305;-78
2022/01/20 17:13:25;;;;;;;27.27;7.80;;;0.20;99.90;;;;;;9990549;29;20289;-76
2022/01/20 17:18:48;;;;;;;29.80;9.57;;;0.20;99.90;;;;;;10003587;29;20210;-79
2022/01/20 17:24:10;;;;;;;19.10;6.20;;;0.20;99.90;;;;;;9990280;29;20559;-76
2022/01/20 17:29:32;;;;;;;19.70;5.27;;;0.10;99.90;;;;;;9990378;29;20583;-76
2022/01/20 17:34:54;;;;;;;15.77;5.07;;;0.10;99.90;;;;;;10003545;29;20198;-78
2022/01/20 17:40:17;;;;;;;8.00;3.20;;;0.10;99.90;;;;;;10003153;29;20205;-78
2022/01/20 17:45:39;;;;;;;3.23;1.97;;;0.10;99.90;;;;;;10003075;29;20237;-77
2022/01/20 17:51:01;;;;;;;5.23;2.00;;;0.10;99.90;;;;;;10003730;29;20519;-78
2022/01/20 17:56:23;;;;;;;7.13;2.83;;;0.00;99.90;;;;;;10003386;29;20192;-78
2022/01/20 18:01:45;;;;;;;4.63;1.90;;;-0.10;99.90;;;;;;9954735;29;20263;-79
2022/01/20 18:07:07;;;;;;;7.00;2.40;;;-0.20;99.90;;;;;;9989516;29;20593;-78
2022/01/20 18:12:30;;;;;;;6.97;2.80;;;-0.20;99.90;;;;;;10003595;29;20206;-78
2022/01/20 18:17:52;;;;;;;5.07;2.13;;;-0.30;99.90;;;;;;10002665;29;20592;-78
2022/01/20 18:23:15;;;;;;;8.17;2.73;;;-0.50;99.90;;;;;;10002370;29;20481;-78
2022/01/20 18:28:37;;;;;;;5.17;2.30;;;-0.40;99.90;;;;;;10002327;29;20487;-79
2022/01/20 18:33:59;;;;;;;5.50;1.80;;;-0.50;99.90;;;;;;9989222;29;20200;-78
2022/01/20 18:39:21;;;;;;;6.73;2.67;;;-0.60;99.90;;;;;;10001818;29;20240;-79
2022/01/20 18:44:46;;;;;;;5.10;2.17;;;-0.50;99.90;;;;;;10003242;29;20252;-78
2022/01/20 18:50:09;;;;;;;5.97;1.90;;;-0.40;99.90;;;;;;9988628;29;20245;-78
2022/01/20 18:55:32;;;;;;;5.60;2.37;;;-0.40;99.90;;;;;;10007498;29;20201;-78
2022/01/20 19:00:56;;;;;;;6.37;2.47;;;-0.50;99.90;;;;;;10040411;29;20204;-78
2022/01/20 19:06:19;;;;;;;7.73;2.27;;;-0.30;99.90;;;;;;9985583;29;20233;-79
2022/01/20 19:11:41;;;;;;;11.47;4.00;;;-0.40;99.90;;;;;;10036613;24;20248;-79
2022/01/20 19:17:04;;;;;;;26.63;7.00;;;-0.50;99.90;;;;;;10032606;29;20283;-79
2022/01/20 19:22:27;;;;;;;12.30;4.50;;;-0.40;99.90;;;;;;10044968;29;20433;-78
2022/01/20 19:27:49;;;;;;;9.30;4.20;;;-0.50;99.90;;;;;;10031400;29;20227;-78
2022/01/20 19:33:11;;;;;;;8.03;3.80;;;-0.50;99.90;;;;;;10016879;29;20235;-78
2022/01/20 19:38:33;;;;;;;13.60;4.63;;;-0.50;99.90;;;;;;10019278;29;20202;-78
2022/01/20 19:43:56;;;;;;;26.13;6.77;;;-0.50;99.90;;;;;;10029012;29;20208;-79
2022/01/20 19:49:17;;;;;;;14.10;4.40;;;-0.50;99.90;;;;;;10013824;29;20521;-79
2022/01/20 19:54:40;;;;;;;18.20;5.50;;;-0.50;99.90;;;;;;10006389;29;20239;-78
2022/01/20 20:00:05;;;;;;;12.60;3.93;;;-0.60;99.90;;;;;;10018831;29;20220;-80
2022/01/20 20:05:29;;;;;;;17.67;6.83;;;-0.60;99.90;;;;;;10001147;29;20227;-79
2022/01/20 20:10:51;;;;;;;39.43;11.87;;;-0.60;99.90;;;;;;9990873;29;20244;-77
2022/01/20 20:16:17;;;;;;;18.90;4.33;;;-0.70;99.90;;;;;;10030776;29;20268;-78
2022/01/20 20:21:40;;;;;;;17.73;4.90;;;-0.80;99.90;;;;;;10014997;29;20202;-78
2022/01/20 20:27:02;;;;;;;9.73;3.30;;;-0.80;99.90;;;;;;10027363;29;20533;-78
2022/01/20 20:32:24;;;;;;;13.00;3.63;;;-0.80;99.90;;;;;;10000063;29;20276;-77
2022/01/20 20:37:46;;;;;;;17.33;5.40;;;-0.80;99.90;;;;;;9989598;29;20209;-77
2022/01/20 20:43:08;;;;;;;10.50;4.00;;;-1.00;99.90;;;;;;10005761;29;20202;-77
2022/01/20 20:48:29;;;;;;;18.40;4.43;;;-0.90;99.90;;;;;;10005656;29;20293;-77
2022/01/20 20:53:51;;;;;;;11.83;3.77;;;-1.00;99.90;;;;;;9989018;29;20201;-77
2022/01/20 20:59:14;;;;;;;7.87;3.10;;;-1.00;99.90;;;;;;10024198;29;20205;-77
2022/01/20 21:04:35;;;;;;;14.40;3.97;;;-1.10;99.90;;;;;;10012422;29;20243;-78
2022/01/20 21:09:57;;;;;;;27.53;3.77;;;-1.00;99.90;;;;;;10012284;29;20241;-78
2022/01/20 21:15:19;;;;;;;14.07;4.20;;;-0.90;99.90;;;;;;10042002;29;20214;-78
2022/01/20 21:20:43;;;;;;;21.23;5.03;;;-0.90;99.90;;;;;;10025656;29;20227;-77
2022/01/20 21:26:06;;;;;;;12.10;4.03;;;-0.90;99.90;;;;;;10026361;29;20384;-77
2022/01/20 21:37:15;;;;;;;13.53;3.80;;;-0.80;99.90;;;;;;9974019;29;20204;-77
2022/01/20 21:48:52;;;;;;;9.53;2.93;;;-0.60;99.90;;;;;;9987380;29;20228;-79
2022/01/20 21:54:16;;;;;;;10.00;2.47;;;-0.50;99.90;;;;;;10708646;24;20292;-78
2022/01/20 22:11:38;;;;;;;12.97;2.90;;;-0.40;99.90;;;;;;9927032;30;20395;-79
2022/01/20 22:23:45;;;;;;;8.83;2.77;;;-0.40;99.90;;;;;;10006750;24;20245;-78
2022/01/20 22:29:10;;;;;;;11.17;2.50;;;-0.30;99.90;;;;;;10050142;29;20229;-78
2022/01/20 22:34:32;;;;;;;4.03;1.87;;;-0.30;99.90;;;;;;10172410;24;20277;-78
2022/01/20 22:40:19;;;;;;;7.90;2.00;;;-0.20;99.90;;;;;;10194027;24;20201;31
2022/01/20 22:45:43;;;;;;;8.80;2.97;;;-0.20;99.90;;;;;;10129674;24;20620;-79
2022/01/20 22:51:08;;;;;;;4.93;2.07;;;-0.20;99.90;;;;;;9975408;29;20237;-78
2022/01/20 22:57:03;;;;;;;3.90;1.90;;;-0.30;99.90;;;;;;9975922;29;20268;-79
2022/01/20 23:02:25;;;;;;;6.67;2.13;;;-0.10;99.90;;;;;;9869112;30;20219;-80
2022/01/20 23:07:48;;;;;;;7.73;1.83;;;-0.10;99.90;;;;;;9893509;30;20276;-78
2022/01/20 23:13:17;;;;;;;6.87;2.00;;;-0.10;99.90;;;;;;9866046;30;20232;-76
2022/01/20 23:19:00;;;;;;;4.73;1.60;;;-0.10;99.90;;;;;;9856365;30;20647;-77
2022/01/20 23:24:23;;;;;;;3.27;1.50;;;0.00;99.90;;;;;;9856296;30;20250;-78
2022/01/20 23:29:45;;;;;;;2.90;1.03;;;0.00;99.90;;;;;;9954587;24;20324;-77
2022/01/20 23:35:07;;;;;;;3.00;1.70;;;-0.10;99.90;;;;;;10029106;29;20423;-79
2022/01/20 23:40:46;;;;;;;5.70;1.30;;;0.00;99.90;;;;;;10029558;29;20217;-78
2022/01/20 23:51:49;;;;;;;5.23;2.03;;;0.10;99.90;;;;;;10046344;29;20233;-79
2022/01/20 23:57:14;;;;;;;4.23;1.37;;;0.10;99.90;;;;;;10029196;29;20208;-79
